Time;durP1;ratioP1;P1;durP2;ratioP2;P2;SDS_P1;SDS_P2;PMS_P1;PMS_P2;Temp;Humidity;BMP_temperature;BMP_pressure;BME280_temperature;BME280_humidity;BME280_pressure;Samples;Min_cycle;Max_cycle;Signal;HPM_P1;HPM_P2
2022/11/17 00:00:40;;;;;;;0.05;0.05;;;;;;;17.24;61.46;99564.47;2111069;28;20495;-65
2022/11/17 00:01:43;;;;;;;0.08;0.08;;;;;;;17.24;61.46;99553.53;2110296;28;20353;-63
2022/11/17 00:02:45;;;;;;;0.03;0.03;;;;;;;17.24;61.24;99553.53;2109333;28;20523;-64
2022/11/17 00:03:50;;;;;;;0.10;0.10;;;;;;;17.25;61.51;99555.09;2115834;28;20066;-64
2022/11/17 00:04:52;;;;;;;0.00;0.00;;;;;;;17.25;61.68;99555.09;2110999;28;20090;-64
2022/11/17 00:05:54;;;;;;;0.10;0.10;;;;;;;17.24;61.25;99548.09;2110240;28;20642;-63
2022/11/17 00:06:57;;;;;;;0.10;0.10;;;;;;;17.24;61.46;99545.38;2111243;28;20123;-64
2022/11/17 00:07:59;;;;;;;0.03;0.03;;;;;;;17.26;61.50;99553.91;2108648;28;20040;-64
2022/11/17 00:09:01;;;;;;;0.05;0.05;;;;;;;17.23;61.43;99546.56;2113703;28;20048;-64
2022/11/17 00:10:05;;;;;;;0.10;0.10;;;;;;;17.25;61.40;99553.13;2112463;28;20466;-64
2022/11/17 00:11:06;;;;;;;0.10;0.10;;;;;;;17.25;61.40;99544.19;2112766;28;20043;-64
2022/11/17 00:14:55;;;;;;;0.00;0.00;;;;;;;17.20;61.44;99539.22;2111501;28;20052;-65
2022/11/17 00:15:59;;;;;;;0.10;0.10;;;;;;;17.21;61.32;99538.78;2107256;28;20048;-65
2022/11/17 00:17:03;;;;;;;0.10;0.10;;;;;;;17.23;61.19;99530.19;2111919;28;20055;-65
2022/11/17 00:22:08;;;;;;;0.10;0.10;;;;;;;17.12;61.68;99505.06;2111814;28;20514;-65
2022/11/17 00:23:09;;;;;;;0.00;0.00;;;;;;;17.15;61.39;99512.41;2108902;28;20090;-64
2022/11/17 00:24:16;;;;;;;0.05;0.05;;;;;;;17.16;61.37;99498.34;2107471;28;20063;-64
2022/11/17 00:25:18;;;;;;;0.10;0.10;;;;;;;17.17;61.12;99512.78;2107735;28;20047;-63
2022/11/17 00:26:22;;;;;;;0.08;0.08;;;;;;;17.19;61.58;99496.75;2113927;28;20631;-65
2022/11/17 00:27:24;;;;;;;0.03;0.03;;;;;;;17.17;61.22;99504.59;2107901;28;20051;-64
2022/11/17 00:28:27;;;;;;;0.10;0.10;;;;;;;17.19;61.39;99494.00;2101809;28;20052;-64
2022/11/17 00:29:29;;;;;;;0.10;0.10;;;;;;;17.19;61.39;99499.47;2107486;28;20063;-64
2022/11/17 00:34:34;;;;;;;;;;;;;;;16.90;61.96;99479.34;2104942;28;20427;-64
2022/11/17 00:35:36;;;;;;;0.10;0.10;;;;;;;17.03;61.55;99480.28;2100542;28;19920;-64
2022/11/17 00:36:41;;;;;;;0.00;0.00;;;;;;;17.08;61.53;99469.66;2104523;28;20606;-65
2022/11/17 00:38:14;;;;;;;0.10;0.10;;;;;;;17.11;61.48;99487.16;2103289;28;20051;-64
2022/11/17 00:39:06;;;;;;;0.10;0.10;;;;;;;17.07;61.42;99472.81;2106217;28;20554;-65
2022/11/17 00:40:08;;;;;;;0.00;0.00;;;;;;;17.12;61.24;99473.13;2106923;28;20183;-65
2022/11/17 00:41:11;;;;;;;0.05;0.05;;;;;;;17.13;61.32;99473.88;2106746;28;20055;-64
2022/11/17 00:42:12;;;;;;;0.00;0.00;;;;;;;17.13;61.36;99471.13;2106278;28;20157;-65
2022/11/17 00:43:15;;;;;;;0.05;0.05;;;;;;;17.13;61.38;99473.88;2102038;28;20074;-64
2022/11/17 00:44:17;;;;;;;0.10;0.10;;;;;;;17.13;61.06;99473.88;2104515;28;20063;-65
2022/11/17 00:45:20;;;;;;;0.10;0.10;;;;;;;17.15;61.23;99460.59;2101640;28;20389;-64
2022/11/17 00:46:22;;;;;;;0.03;0.03;;;;;;;17.14;61.16;99456.34;2106038;28;20052;-65
2022/11/17 00:47:24;;;;;;;0.00;0.00;;;;;;;17.16;60.86;99456.66;2110409;28;20066;-66
2022/11/17 00:48:26;;;;;;;0.08;0.08;;;;;;;17.16;61.20;99464.84;2105237;28;20066;-65
2022/11/17 00:49:29;;;;;;;0.05;0.05;;;;;;;17.17;61.15;99461.69;2105739;28;20503;-65
2022/11/17 00:50:32;;;;;;;0.10;0.10;;;;;;;17.18;60.95;99462.47;2103532;28;20090;-65
2022/11/17 00:51:35;;;;;;;0.10;0.10;;;;;;;17.18;61.12;99451.56;2108999;28;20059;-66
2022/11/17 00:52:37;;;;;;;0.10;0.10;;;;;;;17.17;61.12;99448.06;2104869;28;20055;-63
2022/11/17 00:53:40;;;;;;;0.10;0.10;;;;;;;17.15;61.06;99439.56;2105879;28;20087;-64
2022/11/17 00:54:42;;;;;;;0.00;0.00;;;;;;;17.16;60.92;99432.13;2102804;28;20049;-65
2022/11/17 00:55:44;;;;;;;0.00;0.00;;;;;;;17.19;61.07;99431.28;2108215;28;20086;-65
2022/11/17 00:56:47;;;;;;;0.00;0.00;;;;;;;17.19;60.93;99428.56;2107444;28;20051;-64
2022/11/17 00:57:49;;;;;;;0.03;0.03;;;;;;;17.18;60.85;99432.47;2103148;28;20119;-65
2022/11/17 00:58:52;;;;;;;0.00;0.00;;;;;;;17.19;60.84;99423.88;2102906;28;20063;-64
2022/11/17 00:59:54;;;;;;;0.08;0.08;;;;;;;17.19;61.16;99425.81;2103095;28;20070;-65
2022/11/17 01:00:57;;;;;;;0.05;0.05;;;;;;;17.19;60.77;99420.38;2104319;28;20044;-65
2022/11/17 01:02:00;;;;;;;0.05;0.05;;;;;;;17.19;61.00;99420.38;2104707;28;20147;-64
2022/11/17 01:03:01;;;;;;;0.03;0.03;;;;;;;17.19;60.92;99420.38;2104312;28;20526;-64
2022/11/17 01:04:05;;;;;;;0.00;0.00;;;;;;;17.20;61.06;99427.38;2101979;28;20052;-65
2022/11/17 01:05:07;;;;;;;0.08;0.08;;;;;;;17.19;60.92;99415.69;2104094;28;20060;-65
2022/11/17 01:06:13;;;;;;;0.10;0.10;;;;;;;17.20;60.77;99416.47;2104056;28;20123;-65
2022/11/17 01:07:14;;;;;;;0.05;0.05;;;;;;;17.18;61.03;99425.06;2095974;28;20562;-64
2022/11/17 01:08:17;;;;;;;0.00;0.00;;;;;;;17.19;60.85;99409.47;2101286;28;20052;-64
2022/11/17 01:09:21;;;;;;;0.10;0.10;;;;;;;17.20;60.26;99424.66;2104576;28;20413;-64
2022/11/17 01:10:24;;;;;;;0.00;0.00;;;;;;;17.19;61.12;99423.09;2107691;28;20055;-65
2022/11/17 01:11:26;;;;;;;0.10;0.10;;;;;;;17.19;60.58;99414.91;2106904;28;20071;-65
2022/11/17 01:12:29;;;;;;;0.08;0.08;;;;;;;17.19;60.74;99407.50;2106254;28;20055;-65
2022/11/17 01:13:30;;;;;;;0.05;0.05;;;;;;;17.20;60.74;99400.88;2109271;28;20048;-65
2022/11/17 01:14:34;;;;;;;0.03;0.03;;;;;;;17.20;61.12;99400.09;2107576;28;20063;-65
2022/11/17 01:15:35;;;;;;;0.00;0.00;;;;;;;17.20;60.83;99400.09;2104746;28;20078;-65
2022/11/17 01:16:38;;;;;;;0.00;0.00;;;;;;;17.18;60.97;99405.19;2105469;28;20167;-66
2022/11/17 01:17:40;;;;;;;0.10;0.10;;;;;;;17.18;60.74;99397.03;2102367;28;20506;-65
2022/11/17 01:18:44;;;;;;;0.08;0.08;;;;;;;17.20;60.62;99391.91;2106615;28;20056;-65
2022/11/17 01:19:47;;;;;;;0.08;0.08;;;;;;;17.20;60.84;99389.19;2101993;28;20525;-65
2022/11/17 01:20:50;;;;;;;0.03;0.03;;;;;;;17.19;60.71;99391.16;2100281;28;21208;-63
2022/11/17 01:21:53;;;;;;;0.00;0.00;;;;;;;17.21;60.56;99388.00;2103086;28;20047;-64
2022/11/17 01:22:56;;;;;;;0.10;0.10;;;;;;;17.18;60.53;99391.56;2102099;28;20087;-65
2022/11/17 01:24:00;;;;;;;0.10;0.10;;;;;;;17.21;60.86;99394.22;2103830;28;20104;-65
2022/11/17 01:25:03;;;;;;;0.10;0.10;;;;;;;17.19;60.61;99399.31;2104298;28;20055;-64
2022/11/17 01:26:08;;;;;;;0.08;0.08;;;;;;;17.21;60.43;99385.25;2102069;28;20487;-64
2022/11/17 01:27:10;;;;;;;0.10;0.10;;;;;;;17.20;60.53;99378.28;2104323;28;20098;-64
2022/11/17 01:28:12;;;;;;;0.00;0.00;;;;;;;17.20;60.44;99381.00;2105691;28;20139;-65
2022/11/17 01:29:16;;;;;;;0.08;0.08;;;;;;;17.19;60.55;99377.50;2107854;28;21255;-64
2022/11/17 01:30:18;;;;;;;0.10;0.10;;;;;;;17.19;60.50;99368.53;2104121;28;20055;-65
2022/11/17 01:31:23;;;;;;;0.00;0.00;;;;;;;17.20;60.51;99368.16;2103165;28;20060;-64
2022/11/17 01:32:25;;;;;;;0.03;0.03;;;;;;;17.19;60.84;99368.53;2103843;28;20048;-64
2022/11/17 01:33:28;;;;;;;0.03;0.03;;;;;;;17.20;60.74;99359.19;2103200;28;20048;-65
2022/11/17 01:34:31;;;;;;;0.08;0.08;;;;;;;17.20;60.64;99359.19;2106365;28;20598;-66
2022/11/17 01:35:33;;;;;;;0.00;0.00;;;;;;;17.20;60.47;99356.47;2101364;28;20048;-65
2022/11/17 01:37:55;;;;;;;0.00;0.00;;;;;;;17.18;60.55;99351.44;2104978;28;20103;-64
2022/11/17 01:38:57;;;;;;;0.10;0.10;;;;;;;17.18;60.72;99347.94;2108427;28;20060;-65
2022/11/17 01:40:00;;;;;;;0.10;0.10;;;;;;;17.18;60.47;99347.94;2102256;28;20056;-64
2022/11/17 01:41:04;;;;;;;0.05;0.05;;;;;;;17.19;60.55;99341.28;2105896;28;20526;-64
2022/11/17 01:42:13;;;;;;;0.00;0.00;;;;;;;17.15;60.13;99325.00;2103359;28;20048;-65
2022/11/17 01:43:15;;;;;;;0.10;0.10;;;;;;;17.18;60.97;99323.38;2100173;28;20075;-64
2022/11/17 01:44:57;;;;;;;0.10;0.10;;;;;;;17.09;60.50;99329.41;2101017;28;20052;-64
2022/11/17 01:45:59;;;;;;;0.00;0.00;;;;;;;17.13;60.70;99329.31;2103134;28;20597;-65
2022/11/17 01:47:03;;;;;;;0.08;0.08;;;;;;;17.14;60.61;99330.88;2101298;28;20048;-64
2022/11/17 01:48:06;;;;;;;0.10;0.10;;;;;;;17.14;60.31;99320.72;2103920;28;20055;-64
2022/11/17 01:49:14;;;;;;;0.00;0.00;;;;;;;17.17;60.25;99330.03;2107462;28;20776;-65
2022/11/17 01:50:23;;;;;;;0.10;0.10;;;;;;;17.16;60.38;99312.13;2109125;28;20287;-64
2022/11/17 01:51:27;;;;;;;0.00;0.00;;;;;;;17.12;60.54;99306.75;2102670;28;20048;-64
2022/11/17 01:52:30;;;;;;;0.08;0.08;;;;;;;17.16;60.33;99318.34;2102171;28;20531;-64
2022/11/17 01:53:35;;;;;;;0.00;0.00;;;;;;;17.17;60.41;99313.66;2107254;28;20056;-63
2022/11/17 01:54:40;;;;;;;0.00;0.00;;;;;;;17.17;60.50;99308.22;2100063;28;20166;-64
2022/11/17 01:55:46;;;;;;;0.10;0.10;;;;;;;17.15;60.35;99311.38;2103244;28;20551;-64
2022/11/17 01:56:54;;;;;;;0.10;0.10;;;;;;;17.15;60.33;99313.31;2103774;28;20054;-65
2022/11/17 01:58:02;;;;;;;0.10;0.10;;;;;;;17.15;60.32;99307.84;2103751;28;20070;-64
2022/11/17 01:59:09;;;;;;;0.05;0.05;;;;;;;17.14;60.50;99293.44;2102565;28;20048;-64
2022/11/17 02:00:12;;;;;;;0.10;0.10;;;;;;;17.15;60.38;99294.22;2102171;28;20062;-64
2022/11/17 02:01:14;;;;;;;0.10;0.10;;;;;;;17.15;60.44;99288.78;2103996;28;20059;-64
2022/11/17 02:02:19;;;;;;;0.10;0.10;;;;;;;17.17;60.42;99297.31;2104295;28;20116;-64
2022/11/17 02:03:21;;;;;;;0.00;0.00;;;;;;;17.17;60.26;99289.13;2103416;28;20062;-64
2022/11/17 02:04:27;;;;;;;0.05;0.05;;;;;;;17.17;60.29;99280.94;2103760;28;20483;-64
2022/11/17 02:05:36;;;;;;;0.03;0.03;;;;;;;17.15;60.16;99283.31;2103589;28;20066;-65
2022/11/17 02:06:39;;;;;;;0.00;0.00;;;;;;;17.10;60.18;99267.44;2103352;28;20048;-64
2022/11/17 02:07:43;;;;;;;0.00;0.00;;;;;;;17.14;60.17;99265.44;2103502;28;20043;-64
2022/11/17 02:08:51;;;;;;;0.00;0.00;;;;;;;17.15;59.99;99286.81;2106882;28;20051;-65
2022/11/17 02:09:54;;;;;;;0.08;0.08;;;;;;;17.13;60.00;99272.06;2102985;28;20052;-65
2022/11/17 02:10:58;;;;;;;0.03;0.03;;;;;;;17.12;60.31;99270.53;2104895;28;20036;-65
2022/11/17 02:12:01;;;;;;;0.05;0.05;;;;;;;17.15;60.04;99275.13;2103822;28;20071;-65
2022/11/17 02:13:04;;;;;;;0.08;0.08;;;;;;;17.16;60.28;99284.84;2103827;28;20055;-64
2022/11/17 02:14:08;;;;;;;0.05;0.05;;;;;;;17.15;60.24;99288.78;2104137;28;20044;-64
2022/11/17 02:15:10;;;;;;;0.03;0.03;;;;;;;17.14;60.06;99279.81;2103417;28;20543;-65
2022/11/17 02:16:13;;;;;;;0.08;0.08;;;;;;;17.15;60.24;99278.63;2104099;28;20040;-64
2022/11/17 02:17:16;;;;;;;0.05;0.05;;;;;;;17.13;60.21;99272.06;2102979;28;20052;-64
2022/11/17 02:18:19;;;;;;;0.00;0.00;;;;;;;17.15;60.29;99272.41;2104360;28;20055;-64
2022/11/17 02:19:25;;;;;;;0.10;0.10;;;;;;;17.16;60.11;99273.94;2102587;28;20396;-65
2022/11/17 02:20:41;;;;;;;0.08;0.08;;;;;;;17.11;59.79;99274.44;2098359;28;20382;-65
2022/11/17 02:22:12;;;;;;;0.00;0.00;;;;;;;17.05;60.34;99274.16;2105085;28;20040;-65
2022/11/17 02:23:44;;;;;;;0.00;0.00;;;;;;;17.01;60.42;99267.25;2098487;28;20763;-66
2022/11/17 02:25:18;;;;;;;0.05;0.05;;;;;;;16.99;60.38;99283.25;2103340;28;20091;-64
2022/11/17 02:27:00;;;;;;;0.00;0.00;;;;;;;16.98;60.44;99270.81;2105244;28;20070;-65
2022/11/17 02:28:12;;;;;;;0.10;0.10;;;;;;;17.00;59.98;99266.47;2102046;28;20513;-65
2022/11/17 02:29:21;;;;;;;0.10;0.10;;;;;;;17.03;60.22;99270.34;2104275;28;20048;-65
2022/11/17 02:30:23;;;;;;;0.10;0.10;;;;;;;17.01;60.26;99256.34;2106170;28;20062;-65
2022/11/17 02:31:35;;;;;;;0.00;0.00;;;;;;;17.06;60.11;99264.78;2104018;28;20052;-65
2022/11/17 02:32:45;;;;;;;0.00;0.00;;;;;;;17.05;60.15;99259.75;2103483;28;20040;-64
2022/11/17 02:33:54;;;;;;;0.10;0.10;;;;;;;17.03;60.17;99260.19;2104887;28;20052;-65
2022/11/17 02:35:08;;;;;;;0.10;0.10;;;;;;;17.03;60.38;99256.69;2105728;28;20109;-65
2022/11/17 02:36:18;;;;;;;0.00;0.00;;;;;;;17.03;60.00;99256.69;2102228;28;20056;-65
2022/11/17 02:37:24;;;;;;;;;;;;;;;16.85;60.83;99245.38;2101440;28;20051;-65
2022/11/17 02:38:30;;;;;;;0.00;0.00;;;;;;;16.96;60.30;99251.38;2100614;28;19920;-65
2022/11/17 02:39:39;;;;;;;0.00;0.00;;;;;;;17.01;60.29;99261.81;2104278;28;20407;-65
2022/11/17 02:40:46;;;;;;;0.05;0.05;;;;;;;17.01;60.25;99253.63;2107889;28;20047;-65
2022/11/17 02:41:53;;;;;;;0.00;0.00;;;;;;;17.03;60.33;99256.69;2103119;28;20096;-65
2022/11/17 02:44:28;;;;;;;0.00;0.00;;;;;;;17.00;60.39;99238.47;2084215;28;20057;-65
2022/11/17 02:45:37;;;;;;;0.03;0.03;;;;;;;17.00;60.22;99235.72;2103041;28;20746;-66
2022/11/17 02:46:45;;;;;;;0.00;0.00;;;;;;;17.02;60.24;99238.78;2100911;28;20495;-65
2022/11/17 02:47:52;;;;;;;0.00;0.00;;;;;;;17.02;60.22;99242.28;2104382;28;20066;-65
2022/11/17 02:48:58;;;;;;;0.00;0.00;;;;;;;17.03;60.23;99238.38;2104077;28;20061;-64
2022/11/17 02:50:04;;;;;;;0.00;0.00;;;;;;;17.03;60.35;99246.53;2103343;28;20052;-65
2022/11/17 02:51:12;;;;;;;0.00;0.00;;;;;;;17.04;60.07;99244.59;2108117;28;20117;-65
2022/11/17 02:52:15;;;;;;;0.00;0.00;;;;;;;17.03;60.38;99240.34;2103371;28;20522;-64
2022/11/17 02:53:18;;;;;;;0.08;0.08;;;;;;;17.03;60.27;99232.91;2103277;28;20058;-64
2022/11/17 02:54:22;;;;;;;0.10;0.10;;;;;;;17.04;60.15;99239.91;2103825;28;20052;-65
2022/11/17 02:55:26;;;;;;;0.00;0.00;;;;;;;17.04;60.15;99239.13;2103576;28;20075;-65
2022/11/17 02:56:28;;;;;;;0.05;0.05;;;;;;;17.04;60.30;99234.47;2101823;28;20098;-64
2022/11/17 02:57:32;;;;;;;0.00;0.00;;;;;;;17.05;60.32;99241.44;2105175;28;20079;-65
2022/11/17 02:58:34;;;;;;;0.00;0.00;;;;;;;17.06;60.17;99234.03;2103833;28;20055;-64
2022/11/17 02:59:46;;;;;;;0.10;0.10;;;;;;;17.00;59.96;99206.50;2103446;28;20052;-63
2022/11/17 03:01:07;;;;;;;0.05;0.05;;;;;;;17.01;59.94;99226.34;2104257;28;20590;-64
2022/11/17 03:02:30;;;;;;;0.10;0.10;;;;;;;16.98;60.15;99221.75;2111986;28;20130;-65
2022/11/17 03:03:47;;;;;;;0.00;0.00;;;;;;;16.98;60.08;99214.31;2110694;28;20153;-65
2022/11/17 03:05:03;;;;;;;0.00;0.00;;;;;;;16.98;60.10;99208.13;2105251;28;20048;-64
2022/11/17 03:06:15;;;;;;;0.10;0.10;;;;;;;16.99;60.11;99226.00;2102554;28;20403;-65
2022/11/17 03:07:32;;;;;;;0.10;0.10;;;;;;;16.97;60.12;99201.09;2111546;28;20055;-65
2022/11/17 03:08:42;;;;;;;0.10;0.10;;;;;;;16.99;60.03;99193.28;2102442;28;20459;-65
2022/11/17 03:09:49;;;;;;;0.00;0.00;;;;;;;16.99;60.02;99209.63;2105389;28;20051;-65
2022/11/17 03:10:57;;;;;;;0.00;0.00;;;;;;;17.00;60.16;99197.56;2101207;28;20048;-65
2022/11/17 03:12:06;;;;;;;0.00;0.00;;;;;;;17.00;59.74;99200.28;2109109;28;20055;-65
2022/11/17 03:13:15;;;;;;;0.03;0.03;;;;;;;16.98;60.00;99191.75;2108670;28;20838;-65
2022/11/17 03:14:24;;;;;;;0.03;0.03;;;;;;;17.00;60.05;99186.66;2103838;28;20058;-65
2022/11/17 03:15:39;;;;;;;0.00;0.00;;;;;;;16.98;59.89;99180.84;2102299;28;20108;-64
2022/11/17 03:16:54;;;;;;;0.10;0.10;;;;;;;16.98;59.79;99191.75;2088089;28;20057;-65
2022/11/17 03:18:03;;;;;;;0.10;0.10;;;;;;;16.97;59.83;99168.38;2099159;28;20075;-64
2022/11/17 03:19:12;;;;;;;0.10;0.10;;;;;;;16.99;59.77;99182.38;2100688;28;20060;-65
2022/11/17 03:20:21;;;;;;;0.00;0.00;;;;;;;17.00;59.65;99170.31;2098968;28;20079;-65
2022/11/17 03:21:28;;;;;;;0.08;0.08;;;;;;;16.99;59.78;99176.91;2105579;28;20590;-64
2022/11/17 03:22:40;;;;;;;0.00;0.00;;;;;;;17.00;59.74;99175.75;2102898;28;20056;-66
2022/11/17 03:23:49;;;;;;;0.00;0.00;;;;;;;16.99;59.83;99172.25;2103027;28;20056;-65
2022/11/17 03:24:57;;;;;;;0.03;0.03;;;;;;;16.99;59.80;99174.19;2103595;28;20068;-65
2022/11/17 03:26:05;;;;;;;0.03;0.03;;;;;;;17.00;59.75;99162.13;2101412;28;20048;-64
2022/11/17 03:27:12;;;;;;;0.00;0.00;;;;;;;17.00;59.74;99162.88;2101854;28;20051;-65
2022/11/17 03:28:17;;;;;;;0.00;0.00;;;;;;;17.00;59.72;99162.13;2103389;28;20052;-65
2022/11/17 03:29:23;;;;;;;0.00;0.00;;;;;;;17.01;59.70;99161.69;2103352;28;20090;-64
2022/11/17 03:30:28;;;;;;;0.08;0.08;;;;;;;17.02;59.80;99154.25;2102199;28;20512;-64
2022/11/17 03:31:40;;;;;;;0.10;0.10;;;;;;;16.98;59.88;99150.84;2105236;28;20081;-64
2022/11/17 03:32:48;;;;;;;0.00;0.00;;;;;;;17.02;59.52;99151.53;2103608;28;20568;-65
2022/11/17 03:33:51;;;;;;;0.00;0.00;;;;;;;17.01;59.52;99145.34;2101912;28;20159;-65
2022/11/17 03:34:58;;;;;;;0.00;0.00;;;;;;;17.02;59.87;99135.19;2101548;28;20095;-65
2022/11/17 03:36:05;;;;;;;0.00;0.00;;;;;;;17.02;59.54;99140.63;2100819;28;20080;-65
2022/11/17 03:37:10;;;;;;;0.10;0.10;;;;;;;17.02;59.56;99137.91;2104982;28;20518;-65
2022/11/17 03:38:15;;;;;;;0.00;0.00;;;;;;;17.02;59.58;99141.41;2104126;28;20055;-65
2022/11/17 03:39:23;;;;;;;0.10;0.10;;;;;;;17.02;59.56;99127.78;2107933;28;20055;-66
2022/11/17 03:40:28;;;;;;;0.05;0.05;;;;;;;17.02;59.54;99137.91;2103022;28;20082;-65
2022/11/17 03:41:36;;;;;;;0.00;0.00;;;;;;;17.02;59.54;99144.13;2099441;28;20059;-65
2022/11/17 03:42:43;;;;;;;0.08;0.08;;;;;;;17.02;59.55;99137.91;2100321;28;20119;-65
2022/11/17 03:43:50;;;;;;;0.00;0.00;;;;;;;17.02;59.54;99137.91;2102421;28;20051;-65
2022/11/17 03:44:55;;;;;;;0.00;0.00;;;;;;;17.01;59.44;99131.69;2103278;28;20400;-66
2022/11/17 03:46:04;;;;;;;0.00;0.00;;;;;;;17.01;59.39;99120.00;2103989;28;20055;-66
2022/11/17 03:47:11;;;;;;;0.03;0.03;;;;;;;17.02;59.35;99129.72;2103317;28;20083;-65
2022/11/17 03:48:19;;;;;;;0.00;0.00;;;;;;;16.98;59.51;99120.88;2102336;28;20090;-66
2022/11/17 03:49:28;;;;;;;0.00;0.00;;;;;;;17.00;59.48;99129.41;2100755;28;20060;-65
2022/11/17 03:50:36;;;;;;;0.00;0.00;;;;;;;17.00;59.49;99113.03;2101906;28;20056;-66
2022/11/17 03:51:37;;;;;;;0.00;0.00;;;;;;;17.00;59.48;99121.97;2109142;28;20055;-65
2022/11/17 03:52:42;;;;;;;0.00;0.00;;;;;;;17.02;59.57;99130.50;2105496;28;20086;-65
2022/11/17 03:53:45;;;;;;;0.00;0.00;;;;;;;17.02;59.27;99121.53;2104191;28;20058;-65
2022/11/17 03:54:48;;;;;;;0.00;0.00;;;;;;;17.02;59.44;99127.00;2105764;28;20056;-65
2022/11/17 03:55:57;;;;;;;0.10;0.10;;;;;;;17.02;59.62;99119.59;2102945;28;20542;-64
2022/11/17 03:57:07;;;;;;;0.00;0.00;;;;;;;17.00;59.43;99113.78;2108160;28;20066;-65
2022/11/17 03:58:14;;;;;;;0.00;0.00;;;;;;;17.00;59.20;99107.59;2101805;28;20052;-64
2022/11/17 03:59:22;;;;;;;0.00;0.00;;;;;;;17.01;59.33;99098.22;2106753;28;20052;-65
2022/11/17 04:00:24;;;;;;;0.00;0.00;;;;;;;17.00;59.47;99110.31;2100553;28;20097;-65
2022/11/17 04:01:30;;;;;;;0.08;0.08;;;;;;;17.02;59.41;99113.34;2100641;28;20052;-65
2022/11/17 04:02:33;;;;;;;0.05;0.05;;;;;;;17.01;59.35;99104.44;2107233;28;20680;-65
2022/11/17 04:03:36;;;;;;;0.00;0.00;;;;;;;17.02;59.28;99105.19;2103281;28;20079;-66
2022/11/17 04:06:01;;;;;;;0.10;0.10;;;;;;;16.98;59.35;99115.41;2102957;28;20055;-66
2022/11/17 04:07:03;;;;;;;0.00;0.00;;;;;;;16.99;59.46;99116.94;2103420;28;20096;-66
2022/11/17 04:08:06;;;;;;;0.00;0.00;;;;;;;17.00;59.78;99113.03;2104772;28;20048;-66
2022/11/17 04:09:07;;;;;;;0.00;0.00;;;;;;;17.01;59.48;99106.38;2103457;28;20059;-65
2022/11/17 04:10:13;;;;;;;0.10;0.10;;;;;;;17.02;59.34;99111.41;2107336;28;20048;-66
2022/11/17 04:16:36;;;;;;;0.08;0.08;;;;;;;16.82;59.79;99129.03;2104931;28;19946;-64
2022/11/17 04:17:39;;;;;;;0.05;0.05;;;;;;;16.88;59.73;99095.38;2102743;28;20520;-65
2022/11/17 04:18:42;;;;;;;0.10;0.10;;;;;;;16.91;59.61;99112.84;2103059;28;20503;-65
2022/11/17 04:19:43;;;;;;;0.10;0.10;;;;;;;16.91;59.55;99110.88;2104145;28;20052;-65
2022/11/17 04:20:50;;;;;;;0.00;0.00;;;;;;;16.93;59.41;99103.06;2105055;28;20052;-64
2022/11/17 04:21:51;;;;;;;0.10;0.10;;;;;;;16.93;59.63;99102.28;2103577;28;20052;-65
2022/11/17 04:23:06;;;;;;;0.10;0.10;;;;;;;16.94;59.53;99106.53;2104077;28;20076;-66
2022/11/17 04:24:09;;;;;;;0.00;0.00;;;;;;;16.93;59.48;99110.47;2103452;28;20059;-65
2022/11/17 04:28:35;;;;;;;0.10;0.10;;;;;;;16.94;59.44;99103.81;2106117;28;20048;-66
2022/11/17 04:29:14;;;;;;;0.03;0.03;;;;;;;16.80;59.89;99094.00;2105242;28;20280;-65
2022/11/17 04:30:16;;;;;;;0.10;0.10;;;;;;;16.86;59.65;99105.94;2102882;28;20048;-65
2022/11/17 04:31:21;;;;;;;0.10;0.10;;;;;;;16.86;59.44;99086.09;2104909;28;20359;-65
2022/11/17 04:32:23;;;;;;;0.00;0.00;;;;;;;16.90;59.51;99097.69;2103128;28;20062;-65
2022/11/17 04:33:27;;;;;;;0.00;0.00;;;;;;;16.91;59.31;99086.34;2104611;28;20530;-66
2022/11/17 04:34:30;;;;;;;0.05;0.05;;;;;;;16.91;59.49;99078.19;2103238;28;20059;-66
2022/11/17 04:35:31;;;;;;;0.10;0.10;;;;;;;16.91;59.35;99075.44;2107343;28;20044;-65
2022/11/17 04:36:38;;;;;;;0.00;0.00;;;;;;;16.93;59.36;99070.34;2104049;28;20271;-65
2022/11/17 04:37:40;;;;;;;0.10;0.10;;;;;;;16.92;59.42;99074.25;2101523;28;20131;-63
2022/11/17 04:38:43;;;;;;;0.03;0.03;;;;;;;16.93;59.35;99072.31;2105515;28;20059;-64
2022/11/17 04:39:46;;;;;;;0.10;0.10;;;;;;;16.91;59.37;99072.72;2107727;28;20052;-65
2022/11/17 04:42:04;;;;;;;0.05;0.05;;;;;;;16.91;59.39;99061.03;2105284;28;20087;-65
2022/11/17 04:43:06;;;;;;;0.08;0.08;;;;;;;16.93;59.43;99061.41;2104885;28;20059;-65
2022/11/17 04:44:11;;;;;;;0.03;0.03;;;;;;;16.92;58.87;99057.16;2104091;28;20052;-66
2022/11/17 04:45:12;;;;;;;0.10;0.10;;;;;;;16.92;59.36;99046.25;2105360;28;20526;-65
2022/11/17 04:46:16;;;;;;;0.10;0.10;;;;;;;16.94;59.23;99065.66;2109159;28;20059;-65
2022/11/17 04:47:18;;;;;;;0.10;0.10;;;;;;;16.94;59.12;99057.47;2109487;28;20051;-65
2022/11/17 04:48:20;;;;;;;0.10;0.10;;;;;;;16.95;59.12;99067.94;2102185;28;20091;-65
2022/11/17 04:49:26;;;;;;;0.10;0.10;;;;;;;16.95;59.16;99062.50;2103069;28;20110;-64
2022/11/17 04:50:27;;;;;;;0.00;0.00;;;;;;;16.95;59.21;99053.56;2104067;28;20506;-66
2022/11/17 04:51:31;;;;;;;0.00;0.00;;;;;;;16.95;59.29;99039.94;2110479;28;20074;-66
2022/11/17 04:52:33;;;;;;;0.03;0.03;;;;;;;16.95;59.21;99056.28;2103972;28;20059;-65
2022/11/17 04:53:35;;;;;;;0.00;0.00;;;;;;;16.95;58.99;99056.28;2096044;28;20111;-66
2022/11/17 04:54:39;;;;;;;0.03;0.03;;;;;;;16.96;58.97;99066.00;2100826;28;20052;-66
2022/11/17 04:55:41;;;;;;;0.00;0.00;;;;;;;16.96;59.02;99057.81;2109726;28;20088;-66
2022/11/17 04:56:44;;;;;;;0.00;0.00;;;;;;;16.96;59.05;99064.03;2107502;28;20090;-65
2022/11/17 04:57:45;;;;;;;0.10;0.10;;;;;;;16.96;59.08;99063.28;2102771;28;20052;-65
2022/11/17 04:58:49;;;;;;;0.00;0.00;;;;;;;16.96;59.10;99063.28;2105429;28;20079;-65
2022/11/17 04:59:50;;;;;;;0.08;0.08;;;;;;;16.97;58.89;99065.56;2104151;28;20055;-65
2022/11/17 05:00:53;;;;;;;0.10;0.10;;;;;;;16.97;59.04;99089.31;2104595;28;20503;-66
2022/11/17 05:01:56;;;;;;;0.00;0.00;;;;;;;16.98;58.91;99063.63;2109890;28;20059;-66
2022/11/17 05:03:06;;;;;;;0.00;0.00;;;;;;;16.96;59.09;99069.50;2105954;28;20588;-66
2022/11/17 05:04:10;;;;;;;0.10;0.10;;;;;;;16.97;58.94;99067.53;2107674;28;20059;-66
2022/11/17 05:05:13;;;;;;;0.00;0.00;;;;;;;16.97;59.09;99067.53;2106260;28;20087;-66
2022/11/17 05:06:22;;;;;;;0.00;0.00;;;;;;;16.97;59.00;99056.63;2104577;28;20066;-66
2022/11/17 05:07:24;;;;;;;0.00;0.00;;;;;;;16.95;59.12;99072.66;2110479;28;20533;-66
2022/11/17 05:08:27;;;;;;;0.00;0.00;;;;;;;16.95;58.74;99061.75;2105590;28;20055;-66
2022/11/17 05:09:29;;;;;;;0.10;0.10;;;;;;;16.96;58.90;99058.59;2103812;28;20056;-65
2022/11/17 05:13:24;;;;;;;0.03;0.03;;;;;;;16.83;59.21;99054.22;2099927;28;20299;-66
2022/11/17 05:14:26;;;;;;;0.00;0.00;;;;;;;16.85;59.38;99040.94;2106866;28;20084;-65
2022/11/17 05:18:12;;;;;;;0.00;0.00;;;;;;;16.86;58.98;99070.50;2105702;28;20059;-64
2022/11/17 05:19:16;;;;;;;0.00;0.00;;;;;;;16.89;59.04;99057.97;2103990;28;20792;-64
2022/11/17 05:20:20;;;;;;;0.00;0.00;;;;;;;16.90;58.83;99051.34;2103741;28;20060;-65
2022/11/17 05:21:21;;;;;;;0.10;0.10;;;;;;;16.90;58.87;99048.63;2105135;28;20079;-65
2022/11/17 05:23:53;;;;;;;;;;;;;;;16.69;59.53;99057.28;2104892;28;20074;-65
2022/11/17 05:24:56;;;;;;;0.00;0.00;;;;;;;16.80;59.21;99049.63;2102757;28;20597;-66
2022/11/17 05:25:57;;;;;;;0.00;0.00;;;;;;;16.83;59.07;99048.78;2104092;28;20128;-66
2022/11/17 05:27:00;;;;;;;0.00;0.00;;;;;;;16.87;58.83;99049.47;2112276;28;20051;-66
2022/11/17 05:28:02;;;;;;;0.05;0.05;;;;;;;16.87;58.87;99046.75;2104370;28;20055;-66
2022/11/17 05:29:07;;;;;;;0.00;0.00;;;;;;;16.89;58.73;99053.28;2100760;28;20059;-66
2022/11/17 05:30:10;;;;;;;0.05;0.05;;;;;;;16.89;58.83;99063.41;2100960;28;20479;-66
2022/11/17 05:31:13;;;;;;;0.08;0.08;;;;;;;16.89;58.78;99056.03;2105195;28;20043;-66
2022/11/17 05:32:17;;;;;;;0.00;0.00;;;;;;;16.91;58.80;99052.88;2105439;28;20056;-66
2022/11/17 05:33:20;;;;;;;0.05;0.05;;;;;;;16.90;58.73;99057.56;2105765;28;20048;-66
2022/11/17 05:34:22;;;;;;;0.00;0.00;;;;;;;16.91;58.89;99050.13;2104312;28;20056;-66
2022/11/17 05:35:26;;;;;;;0.00;0.00;;;;;;;16.91;58.83;99039.25;2108875;28;20082;-66
2022/11/17 05:36:28;;;;;;;0.10;0.10;;;;;;;16.91;58.77;99047.41;2111730;28;20052;-66
2022/11/17 05:37:31;;;;;;;0.00;0.00;;;;;;;16.91;58.89;99047.41;2103197;28;20055;-66
2022/11/17 05:38:33;;;;;;;0.10;0.10;;;;;;;16.91;58.64;99040.00;2104250;28;20067;-66
2022/11/17 05:39:35;;;;;;;0.00;0.00;;;;;;;16.92;58.73;99052.44;2107666;28;20633;-66